Wied, Texas
Current Conditions -  °F | °C
As of 8:55 AM on Wednesday 26 Nov 2014 (Local Time) from K66R Reporting Station
Clear Clear  
Wind Chill: 13°   Ceiling: Unl
Heat Index: 13°   Visibility: 10mi
Dew Point:   Wind: 10mph
Humidity: 48%   Direction: 230°SW
Pressure: 30.24"   Gusts: 17mph
Location:  29.3984°N, 96.8256°W
Report Text: K66R 261455Z AUTO 23009G15KT 10SM CLR 13/02 A3024 RMK AO2 T01270020
Loading
Personal Weather Stations






























Interactive Weather Map New forecast layout! Learn more

10-Day Weather Forecast

Advertisements
Track Severe Weather on mobile